createdAt,value
2023-01-04T00:01:23.701Z,28.17
2023-01-04T00:03:51.207Z,29.05
2023-01-04T00:06:18.752Z,28.38
2023-01-04T00:08:45.546Z,30.67
2023-01-04T00:11:21.160Z,31.92
2023-01-04T00:13:50.119Z,32.85
2023-01-04T00:16:20.121Z,30.02
2023-01-04T00:18:47.117Z,33.58
2023-01-04T00:21:21.374Z,33.22
2023-01-04T00:23:53.112Z,31.95
2023-01-04T00:26:22.982Z,33.90
2023-01-04T00:29:14.843Z,31.95
2023-01-04T00:31:44.735Z,27.88
2023-01-04T00:34:14.685Z,28.27
2023-01-04T00:36:42.193Z,28.95
2023-01-04T00:39:15.059Z,30.33
2023-01-04T00:42:01.547Z,27.60
2023-01-04T00:44:30.636Z,27.45
2023-01-04T00:46:58.126Z,26.73
2023-01-04T00:49:27.634Z,26.60
2023-01-04T00:51:55.095Z,27.88
2023-01-04T00:54:22.179Z,29.73
2023-01-04T00:56:49.449Z,25.25
2023-01-04T00:59:19.048Z,25.25
2023-01-04T01:01:46.240Z,24.63
2023-01-04T01:04:15.539Z,24.58
2023-01-04T01:06:42.459Z,24.17
2023-01-04T01:09:10.006Z,25.17
2023-01-04T01:11:38.419Z,24.40
2023-01-04T01:14:05.637Z,23.15
2023-01-04T01:16:53.825Z,23.73
2023-01-04T01:19:19.291Z,26.58
2023-01-04T01:21:46.084Z,24.50
2023-01-04T01:24:17.932Z,26.08
2023-01-04T01:26:44.721Z,24.13
2023-01-04T01:29:11.603Z,25.02
2023-01-04T01:31:38.482Z,22.63
2023-01-04T01:34:05.276Z,22.10
2023-01-04T01:36:32.043Z,24.13
2023-01-04T01:38:59.588Z,22.67
2023-01-04T01:41:32.601Z,22.58
2023-01-04T01:44:02.525Z,24.45
2023-01-04T01:46:49.223Z,27.23
2023-01-04T01:49:31.051Z,26.52
2023-01-04T01:52:02.234Z,29.50
2023-01-04T01:54:42.807Z,28.27
2023-01-04T01:57:13.058Z,31.08
2023-01-04T01:59:42.836Z,24.58
2023-01-04T02:02:11.137Z,24.00
2023-01-04T02:04:41.851Z,23.27
2023-01-04T02:07:11.089Z,24.45
2023-01-04T02:09:38.267Z,24.70
2023-01-04T02:12:05.343Z,25.85
2023-01-04T02:14:32.134Z,26.17
2023-01-04T02:17:17.451Z,26.38
2023-01-04T02:19:50.209Z,25.60
2023-01-04T02:22:45.092Z,24.83
2023-01-04T02:25:33.053Z,26.25
2023-01-04T02:28:38.035Z,26.00
2023-01-04T02:31:19.691Z,24.20
2023-01-04T02:33:55.228Z,24.45
2023-01-04T02:36:32.077Z,26.60
2023-01-04T02:43:21.959Z,24.20
2023-01-04T02:45:58.215Z,25.80
2023-01-04T02:48:57.329Z,26.30
2023-01-04T02:51:33.024Z,26.20
2023-01-04T02:54:07.193Z,27.27
2023-01-04T02:56:39.487Z,25.73
2023-01-04T02:59:06.218Z,25.75
2023-01-04T03:01:59.678Z,23.55
2023-01-04T03:05:05.431Z,24.67
2023-01-04T03:07:46.956Z,26.30
2023-01-04T03:10:26.041Z,23.50
2023-01-04T03:13:01.468Z,20.83
2023-01-04T03:15:34.501Z,24.40
2023-01-04T03:18:24.393Z,24.83
2023-01-04T03:20:53.125Z,22.20
2023-01-04T03:23:43.778Z,23.48
2023-01-04T03:26:37.267Z,24.92
2023-01-04T03:29:31.155Z,23.20
2023-01-04T03:32:30.977Z,22.70
2023-01-04T03:35:17.137Z,24.25
2023-01-04T03:38:26.985Z,23.63
2023-01-04T03:41:21.005Z,25.13
2023-01-04T03:44:50.633Z,28.35
2023-01-04T03:47:56.724Z,31.15
2023-01-04T03:50:28.766Z,25.38
2023-01-04T03:52:57.037Z,22.98
2023-01-04T03:55:24.780Z,23.92
2023-01-04T03:57:52.524Z,27.20
2023-01-04T04:00:20.186Z,21.17
2023-01-04T04:02:49.375Z,23.15
2023-01-04T04:05:41.883Z,22.02
2023-01-04T04:08:27.521Z,20.95
2023-01-04T04:10:56.153Z,20.67
2023-01-04T04:13:23.067Z,19.02
2023-01-04T04:15:52.088Z,21.30
2023-01-04T04:18:18.910Z,22.63
2023-01-04T04:20:45.592Z,21.90
2023-01-04T04:23:12.415Z,20.08
2023-01-04T04:25:39.192Z,22.05
2023-01-04T04:28:06.314Z,21.77
2023-01-04T04:30:33.126Z,24.00
2023-01-04T04:32:59.966Z,25.77
2023-01-04T04:35:26.817Z,23.67
2023-01-04T04:37:53.575Z,24.27
2023-01-04T04:40:39.061Z,24.85
2023-01-04T04:43:08.225Z,22.27
2023-01-04T04:45:34.927Z,23.02
2023-01-04T04:48:01.839Z,22.33
2023-01-04T04:50:28.650Z,25.38
2023-01-04T04:52:56.410Z,26.88
2023-01-04T04:55:23.792Z,25.65
2023-01-04T04:57:50.529Z,26.02
2023-01-04T05:00:17.551Z,24.98
2023-01-04T05:02:44.579Z,26.90
2023-01-04T05:05:11.366Z,24.67
2023-01-04T05:07:38.219Z,25.00
2023-01-04T05:10:05.764Z,25.92
2023-01-04T05:12:57.437Z,24.13
2023-01-04T05:15:24.754Z,23.33
2023-01-04T05:17:51.654Z,25.67
2023-01-04T05:20:22.166Z,23.75
2023-01-04T05:23:03.948Z,23.70
2023-01-04T05:25:38.025Z,23.17
2023-01-04T05:28:23.194Z,22.35
2023-01-04T05:30:59.013Z,20.38
2023-01-04T05:33:31.940Z,21.50
2023-01-04T05:38:47.139Z,22.20
2023-01-04T05:41:32.728Z,22.50
2023-01-04T05:43:59.627Z,21.88
2023-01-04T05:46:26.416Z,20.77
2023-01-04T05:48:53.289Z,23.42
2023-01-04T05:51:20.119Z,22.45
2023-01-04T05:53:46.883Z,21.52
2023-01-04T05:56:13.831Z,22.75
2023-01-04T05:58:40.750Z,20.50
2023-01-04T06:01:07.902Z,24.88
2023-01-04T06:03:34.951Z,25.58
2023-01-04T06:06:01.870Z,23.40
2023-01-04T06:08:28.495Z,24.92
2023-01-04T06:10:55.771Z,25.20
2023-01-04T06:13:22.627Z,25.88
2023-01-04T06:15:49.414Z,25.70
2023-01-04T06:18:16.108Z,25.73
2023-01-04T06:20:44.104Z,23.63
2023-01-04T06:23:11.087Z,25.13
2023-01-04T06:25:38.249Z,23.13
2023-01-04T06:28:04.950Z,22.92
2023-01-04T06:30:32.681Z,24.35
2023-01-04T06:32:59.561Z,24.05
2023-01-04T06:35:29.206Z,24.90
2023-01-04T06:37:56.447Z,26.42
2023-01-04T06:40:27.730Z,24.83
2023-01-04T06:42:54.890Z,29.55
2023-01-04T06:45:23.490Z,27.67
2023-01-04T06:47:51.284Z,27.70
2023-01-04T06:50:17.985Z,28.80
2023-01-04T06:52:44.852Z,27.80
2023-01-04T06:55:11.739Z,29.63
2023-01-04T06:57:38.512Z,30.73
2023-01-04T07:00:07.046Z,33.60
2023-01-04T07:02:34.155Z,30.48
2023-01-04T07:05:01.434Z,33.10
2023-01-04T07:07:28.394Z,31.92
2023-01-04T07:09:55.319Z,33.33
2023-01-04T07:12:22.268Z,33.30
2023-01-04T07:14:49.138Z,34.15
2023-01-04T07:17:16.223Z,33.03
2023-01-04T07:19:43.275Z,34.97
2023-01-04T07:22:10.772Z,32.15
2023-01-04T07:24:37.517Z,34.47
2023-01-04T07:27:04.344Z,34.40
2023-01-04T07:29:31.331Z,32.45
2023-01-04T07:31:58.185Z,33.17
2023-01-04T07:34:26.055Z,35.75
2023-01-04T07:36:54.616Z,32.45
2023-01-04T07:39:22.088Z,33.08
2023-01-04T07:41:50.565Z,32.63
2023-01-04T07:44:19.061Z,33.95
2023-01-04T07:46:45.904Z,38.60
2023-01-04T07:49:18.140Z,38.08
2023-01-04T07:51:46.875Z,35.65
2023-01-04T07:54:14.573Z,36.13
2023-01-04T07:56:41.559Z,37.10
2023-01-04T07:59:10.094Z,40.38
2023-01-04T08:01:38.731Z,40.08
2023-01-04T08:04:06.943Z,40.05
2023-01-04T08:06:35.355Z,40.67
2023-01-04T08:09:03.447Z,37.10
2023-01-04T08:11:30.375Z,37.75
2023-01-04T08:13:57.386Z,37.58
2023-01-04T08:16:31.828Z,40.60
2023-01-04T08:19:05.940Z,37.08
2023-01-04T08:21:34.934Z,39.78
2023-01-04T08:24:01.971Z,42.97
2023-01-04T08:26:29.718Z,39.70
2023-01-04T08:28:57.132Z,41.65
2023-01-04T08:31:27.326Z,42.35
2023-01-04T08:33:56.474Z,42.20
2023-01-04T08:36:29.430Z,44.22
2023-01-04T08:39:07.275Z,48.22
2023-01-04T08:44:37.967Z,45.25
2023-01-04T08:47:05.184Z,45.05
2023-01-04T08:49:32.191Z,44.60
2023-01-04T08:51:59.258Z,48.53
2023-01-04T08:54:26.093Z,45.85
2023-01-04T08:56:55.511Z,47.22
2023-01-04T08:59:23.030Z,48.42
2023-01-04T09:01:52.451Z,51.53
2023-01-04T09:04:19.320Z,54.33
2023-01-04T09:06:46.357Z,54.47
2023-01-04T09:09:15.530Z,58.35
2023-01-04T09:11:49.673Z,54.45
2023-01-04T09:14:16.407Z,54.35
2023-01-04T09:16:46.052Z,52.08
2023-01-04T09:19:21.456Z,53.08
2023-01-04T09:21:49.724Z,56.50
2023-01-04T09:24:22.714Z,54.00
2023-01-04T09:26:53.951Z,74.38
2023-01-04T09:29:21.257Z,52.50
2023-01-04T09:34:49.046Z,57.63
2023-01-04T09:37:18.023Z,52.25
2023-01-04T09:39:48.413Z,56.00
2023-01-04T09:42:38.468Z,52.83
2023-01-04T09:45:29.353Z,55.17
2023-01-04T09:48:21.642Z,49.92
2023-01-04T09:51:17.159Z,51.22
2023-01-04T09:53:53.563Z,48.80
2023-01-04T09:56:27.129Z,48.35
2023-01-04T09:59:00.377Z,45.95
2023-01-04T10:02:00.627Z,47.70
2023-01-04T10:04:45.107Z,51.53
2023-01-04T10:07:21.746Z,53.55
2023-01-04T10:09:48.521Z,50.88
2023-01-04T10:12:27.511Z,48.20
2023-01-04T10:14:54.242Z,49.10
2023-01-04T10:21:31.958Z,40.42
2023-01-04T10:24:25.799Z,37.35
2023-01-04T10:27:00.182Z,35.70
2023-01-04T10:29:48.859Z,38.15
2023-01-04T10:32:37.930Z,36.85
2023-01-04T10:35:16.072Z,41.70
2023-01-04T10:37:43.422Z,38.55
2023-01-04T10:40:16.487Z,38.47
2023-01-04T10:42:59.472Z,36.80
2023-01-04T10:45:41.151Z,36.25
2023-01-04T10:48:27.946Z,33.83
2023-01-04T10:51:05.229Z,34.08
2023-01-04T10:53:56.289Z,33.58
2023-01-04T10:56:31.214Z,35.00
2023-01-04T10:59:18.641Z,34.40
2023-01-04T11:01:56.044Z,29.75
2023-01-04T11:04:44.968Z,30.48
2023-01-04T11:07:28.696Z,26.30
2023-01-04T11:09:58.275Z,27.33
2023-01-04T11:12:26.330Z,17.00
2023-01-04T11:14:53.633Z,17.33
2023-01-04T11:17:21.943Z,21.10
2023-01-04T11:19:48.969Z,17.58
2023-01-04T11:22:29.694Z,18.70
2023-01-04T11:27:57.761Z,21.60
2023-01-04T11:30:31.139Z,22.50
2023-01-04T11:33:08.819Z,20.13
2023-01-04T11:35:43.914Z,19.48
2023-01-04T11:38:26.402Z,18.95
2023-01-04T11:40:55.855Z,15.93
2023-01-04T11:43:23.778Z,13.80
2023-01-04T11:45:55.121Z,15.82
2023-01-04T11:48:33.270Z,16.90
2023-01-04T11:51:00.393Z,16.00
2023-01-04T11:53:31.901Z,15.50
2023-01-04T11:56:19.104Z,14.85
2023-01-04T11:59:04.547Z,15.40
2023-01-04T12:01:34.633Z,13.88
2023-01-04T12:04:02.426Z,16.13
2023-01-04T12:06:45.823Z,13.98
2023-01-04T12:09:15.870Z,14.63
2023-01-04T12:11:51.089Z,15.30
2023-01-04T12:14:27.308Z,15.10
2023-01-04T12:16:58.051Z,16.33
2023-01-04T12:19:25.876Z,17.10
2023-01-04T12:21:56.705Z,16.95
2023-01-04T12:25:01.047Z,17.45
2023-01-04T12:27:29.707Z,18.30
2023-01-04T12:29:56.411Z,18.42
2023-01-04T12:32:23.082Z,17.73
2023-01-04T12:34:51.195Z,16.33
2023-01-04T12:37:45.982Z,15.25
2023-01-04T12:40:54.336Z,17.23
2023-01-04T12:43:26.400Z,11.52
2023-01-04T12:46:49.293Z,11.35
2023-01-04T12:49:28.092Z,6.45
2023-01-04T12:55:01.978Z,6.93
2023-01-04T12:57:38.080Z,6.35
2023-01-04T13:00:12.661Z,7.35
2023-01-04T13:02:52.422Z,5.55
2023-01-04T13:08:12.221Z,6.13
2023-01-04T13:10:43.193Z,5.53
2023-01-04T13:13:19.119Z,6.57
2023-01-04T13:15:55.479Z,4.60
2023-01-04T13:18:35.670Z,5.80
2023-01-04T13:21:11.485Z,5.57
2023-01-04T13:23:40.371Z,5.43
2023-01-04T13:26:32.216Z,6.00
2023-01-04T13:29:14.814Z,5.63
2023-01-04T13:32:03.224Z,5.15
2023-01-04T13:34:34.707Z,5.65
2023-01-04T13:37:19.270Z,4.93
2023-01-04T13:40:01.355Z,5.18
2023-01-04T13:42:29.946Z,6.03
2023-01-04T13:45:21.801Z,6.10
2023-01-04T13:47:57.295Z,5.75
2023-01-04T13:50:37.831Z,5.63
2023-01-04T13:53:07.883Z,6.43
2023-01-04T13:55:38.595Z,8.27
2023-01-04T13:58:15.844Z,8.38
2023-01-04T14:00:51.935Z,5.15
2023-01-04T14:03:41.331Z,6.72
2023-01-04T14:06:11.329Z,6.55
2023-01-04T14:08:52.532Z,6.13
2023-01-04T14:11:45.762Z,6.22
2023-01-04T14:14:32.344Z,6.78
2023-01-04T14:17:22.235Z,9.57
2023-01-04T14:19:55.569Z,8.60
2023-01-04T14:22:26.421Z,8.07
2023-01-04T14:25:11.489Z,8.90
2023-01-04T14:27:40.753Z,8.98
2023-01-04T14:30:19.336Z,7.00
2023-01-04T14:32:55.301Z,6.75
2023-01-04T14:35:22.300Z,8.00
2023-01-04T14:37:49.813Z,7.25
2023-01-04T14:40:37.568Z,7.80
2023-01-04T14:43:37.739Z,6.88
2023-01-04T14:46:04.753Z,6.97
2023-01-04T14:48:31.881Z,6.85
2023-01-04T14:51:00.289Z,6.65
2023-01-04T14:53:27.722Z,7.43
2023-01-04T14:55:57.330Z,7.70
2023-01-04T14:58:24.099Z,7.30
2023-01-04T15:00:51.169Z,8.05
2023-01-04T15:03:18.134Z,9.00
2023-01-04T15:05:46.792Z,7.65
2023-01-04T15:08:14.155Z,9.52
2023-01-04T15:10:40.978Z,8.32
2023-01-04T15:13:07.795Z,9.82
2023-01-04T15:15:35.096Z,8.38
2023-01-04T15:18:10.209Z,8.70
2023-01-04T15:20:50.005Z,9.02
2023-01-04T15:23:16.826Z,7.68
2023-01-04T15:25:44.745Z,7.28
2023-01-04T15:28:11.604Z,7.00
2023-01-04T15:30:42.550Z,9.25
2023-01-04T15:33:09.877Z,8.63
2023-01-04T15:35:36.828Z,7.75
2023-01-04T15:38:06.448Z,6.88
2023-01-04T15:40:35.995Z,8.88
2023-01-04T15:43:04.361Z,9.32
2023-01-04T15:45:35.887Z,10.18
2023-01-04T15:48:08.179Z,10.55
2023-01-04T15:50:38.239Z,12.13
2023-01-04T15:53:06.366Z,11.80
2023-01-04T15:55:37.886Z,21.95
2023-01-04T15:58:08.342Z,22.52
2023-01-04T16:00:42.975Z,20.42
2023-01-04T16:03:12.074Z,15.35
2023-01-04T16:05:38.882Z,14.73
2023-01-04T16:08:05.760Z,13.45
2023-01-04T16:10:32.542Z,11.40
2023-01-04T16:12:59.432Z,9.65
2023-01-04T16:15:29.427Z,10.20
2023-01-04T16:17:56.511Z,31.65
2023-01-04T16:20:23.764Z,22.05
2023-01-04T16:22:51.170Z,14.25
2023-01-04T16:25:26.159Z,32.00
2023-01-04T16:27:56.618Z,32.90
2023-01-04T16:30:29.533Z,13.35
2023-01-04T16:32:56.935Z,57.75
2023-01-04T16:35:23.779Z,22.33
2023-01-04T16:37:56.821Z,17.95
2023-01-04T16:40:24.841Z,14.38
2023-01-04T16:42:51.565Z,10.63
2023-01-04T16:45:21.710Z,10.55
2023-01-04T16:47:50.504Z,11.93
2023-01-04T16:50:17.426Z,10.38
2023-01-04T16:52:50.010Z,10.27
2023-01-04T16:55:23.399Z,9.65
2023-01-04T16:57:52.945Z,10.50
2023-01-04T17:00:22.164Z,17.25
2023-01-04T17:02:55.234Z,10.52
2023-01-04T17:05:23.304Z,9.95
2023-01-04T17:07:55.072Z,12.48
2023-01-04T17:10:29.833Z,10.10
2023-01-04T17:12:56.877Z,12.30
2023-01-04T17:15:42.458Z,10.77
2023-01-04T17:18:12.585Z,9.68
2023-01-04T17:20:40.730Z,9.27
2023-01-04T17:23:07.837Z,9.27
2023-01-04T17:25:34.857Z,6.38
2023-01-04T17:28:01.894Z,9.23
2023-01-04T17:30:28.678Z,7.15
2023-01-04T17:32:55.477Z,8.27
2023-01-04T17:35:22.262Z,9.18
2023-01-04T17:37:49.070Z,9.13
2023-01-04T17:40:22.459Z,8.82
2023-01-04T17:42:50.084Z,9.75
2023-01-04T17:45:17.432Z,10.65
2023-01-04T17:47:44.307Z,9.95
2023-01-04T17:50:11.146Z,10.32
2023-01-04T17:52:38.103Z,9.05
2023-01-04T17:55:05.641Z,8.38
2023-01-04T17:57:35.057Z,9.57
2023-01-04T18:00:05.133Z,12.40
2023-01-04T18:02:33.708Z,8.63
2023-01-04T18:05:00.945Z,10.23
2023-01-04T18:07:28.499Z,8.90
2023-01-04T18:09:55.722Z,11.25
2023-01-04T18:12:23.174Z,10.73
2023-01-04T18:14:50.255Z,8.98
2023-01-04T18:17:17.339Z,8.48
2023-01-04T18:19:46.456Z,8.00
2023-01-04T18:22:13.850Z,9.57
2023-01-04T18:24:40.756Z,10.25
2023-01-04T18:27:26.398Z,15.00
2023-01-04T18:29:55.601Z,8.95
2023-01-04T18:32:24.080Z,9.10
2023-01-04T18:34:53.737Z,7.97
2023-01-04T18:37:21.389Z,8.65
2023-01-04T18:39:48.560Z,8.50
2023-01-04T18:42:15.792Z,9.18
2023-01-04T18:44:47.782Z,7.85
2023-01-04T18:47:16.938Z,11.77
2023-01-04T18:49:44.193Z,10.20
2023-01-04T18:52:11.182Z,10.10
2023-01-04T18:54:45.139Z,9.95
2023-01-04T18:57:12.259Z,12.02
2023-01-04T18:59:39.648Z,9.82
2023-01-04T19:02:06.786Z,7.75
2023-01-04T19:04:35.293Z,8.38
2023-01-04T19:07:02.577Z,10.20
2023-01-04T19:09:29.823Z,11.15
2023-01-04T19:11:56.639Z,9.77
2023-01-04T19:14:23.442Z,11.00
2023-01-04T19:16:52.770Z,18.30
2023-01-04T19:19:21.209Z,10.07
2023-01-04T19:21:48.185Z,8.65
2023-01-04T19:24:15.117Z,8.45
2023-01-04T19:26:41.956Z,8.63
2023-01-04T19:29:09.075Z,7.55
2023-01-04T19:31:36.143Z,7.88
2023-01-04T19:34:03.186Z,9.45
2023-01-04T19:36:30.216Z,8.10
2023-01-04T19:39:03.295Z,7.63
2023-01-04T19:41:34.612Z,8.75
2023-01-04T19:44:03.596Z,8.27
2023-01-04T19:46:31.990Z,8.13
2023-01-04T19:49:00.691Z,9.15
2023-01-04T19:51:30.583Z,7.65
2023-01-04T19:53:57.711Z,6.40
2023-01-04T19:56:25.061Z,8.15
2023-01-04T19:58:58.811Z,7.85
2023-01-04T20:01:25.788Z,8.80
2023-01-04T20:04:00.180Z,8.00
2023-01-04T20:06:27.465Z,8.98
2023-01-04T20:09:37.665Z,8.50
2023-01-04T20:12:08.110Z,8.00
2023-01-04T20:15:01.116Z,7.93
2023-01-04T20:17:30.764Z,8.88
2023-01-04T20:19:57.654Z,8.00
2023-01-04T20:22:27.478Z,7.53
2023-01-04T20:29:21.288Z,9.73
2023-01-04T20:32:14.165Z,8.32
2023-01-04T20:34:44.204Z,6.32
2023-01-04T20:37:12.070Z,7.97
2023-01-04T20:39:39.740Z,9.00
2023-01-04T20:42:25.226Z,9.05
2023-01-04T20:44:56.696Z,7.82
2023-01-04T20:47:26.816Z,8.55
2023-01-04T20:49:53.720Z,8.27
2023-01-04T20:52:20.617Z,8.77
2023-01-04T20:54:50.498Z,7.72
2023-01-04T20:57:19.689Z,8.27
2023-01-04T20:59:46.736Z,8.38
2023-01-04T21:02:16.888Z,8.70
2023-01-04T21:05:01.324Z,8.10
2023-01-04T21:07:31.396Z,7.75
2023-01-04T21:10:03.293Z,8.38
2023-01-04T21:12:30.279Z,8.05
2023-01-04T21:14:57.329Z,9.77
2023-01-04T21:17:27.919Z,9.13
2023-01-04T21:20:00.017Z,9.52
2023-01-04T21:22:43.446Z,9.15
2023-01-04T21:28:20.646Z,8.13
2023-01-04T21:30:48.670Z,8.80
2023-01-04T21:33:21.680Z,8.90
2023-01-04T21:35:50.035Z,7.57
2023-01-04T21:38:36.095Z,8.35
2023-01-04T21:41:48.081Z,7.80
2023-01-04T21:44:01.964Z,7.93
2023-01-04T21:46:35.502Z,9.55
2023-01-04T21:49:02.623Z,9.25
2023-01-04T21:51:32.515Z,8.65
2023-01-04T21:54:06.552Z,10.45
2023-01-04T21:56:35.200Z,7.68
2023-01-04T21:59:02.320Z,9.50
2023-01-04T22:01:35.180Z,8.90
2023-01-04T22:04:07.882Z,8.75
2023-01-04T22:06:38.987Z,8.95
2023-01-04T22:11:50.333Z,9.25
2023-01-04T22:17:04.885Z,8.65
2023-01-04T22:19:33.406Z,8.15
2023-01-04T22:22:06.335Z,7.35
2023-01-04T22:24:38.367Z,8.10
2023-01-04T22:27:14.856Z,8.60
2023-01-04T22:29:44.526Z,9.63
2023-01-04T22:32:17.936Z,15.85
2023-01-04T22:35:23.150Z,14.05
2023-01-04T22:37:50.515Z,13.48
2023-01-04T22:41:22.629Z,18.88
2023-01-04T22:43:11.955Z,24.02
2023-01-04T22:47:28.800Z,23.70
2023-01-04T22:48:42.616Z,20.90
2023-01-04T22:51:12.566Z,12.88
2023-01-04T22:53:42.432Z,12.07
2023-01-04T22:56:21.390Z,10.57
2023-01-04T22:58:53.300Z,13.50
2023-01-04T23:01:25.373Z,10.95
2023-01-04T23:03:52.854Z,7.97
2023-01-04T23:06:20.681Z,9.20
2023-01-04T23:08:51.163Z,9.43
2023-01-04T23:11:21.376Z,10.00
2023-01-04T23:13:49.026Z,8.38
2023-01-04T23:16:19.432Z,7.80
2023-01-04T23:18:46.577Z,7.75
2023-01-04T23:21:15.444Z,8.57
